Share

Arvilla, ND

1:28 PM CDT on April 23, 2014 (GMT -0500)
Grand Forks Air Force Base (KRDR) Elev 912 ft | 47.96 °N, 97.40 °W | Change Station

Current weather conditions updated 11 minutes ago

Light Rain
Light Rain
45 °F
Feels Like 37 °F
N
16
Wind Variable Wind from SE
Sunrise 6:25 AM
Sunset 8:31 PM
Moon Waning Crescent

Today is forecast to be Much Cooler than yesterday. Mainly cloudy and rainy.

Pressure 29.86 in
Visibility 9.0 miles
Clouds Mostly Cloudy 1200 ft
Overcast 1800 ft
Windchill 37 °F
Dew Point 45 °F
Humidity 100%
Rainfall 0.11 in
Snow Depth Not available.
UV 3 out of 16
Pollen 7.80 out of 12
Air Quality Not available.
Flu Activity Sporadic
SPECI KRDR 231817Z AUTO 13014KT 9SM -RA BKN012 OVC018 07/07 A2986 RMK AO2 CIG 011V018

More Conditions Fewer Conditions

Pressure 29.86 in
Visibility 9.0 miles
Clouds Mostly Cloudy 1200 ft
Overcast 1800 ft
Windchill 37 °F
Dew Point 45 °F
Humidity 100%
Rainfall 0.11 in
Snow Depth Not available.
UV 3 out of 16
Pollen 7.80 out of 12
Air Quality Not available.
Flu Activity Sporadic
SPECI KRDR 231817Z AUTO 13014KT 9SM -RA BKN012 OVC018 07/07 A2986 RMK AO2 CIG 011V018

More Conditions Fewer Conditions

10-Day Weather Forecast

Almanac

Astronomy

Apr. 23, 2014 Rise Set
Actual Time 6:25 AM CDT 8:31 PM CDT
Civil Twilight 5:52 AM CDT 9:05 PM CDT
Nautical Twilight 5:10 AM CDT 9:47 PM CDT
Astronomical Twilight 4:24 AM CDT 10:33 PM CDT
Moon 3:25 AM CDT 2:16 PM CDT
Length of Visible Light 15h 12m
Length of Day
14h 05m
Tomorrow will be 3m 13s longer.
Waning Crescent, 34% of the Moon is Illuminated
Today
Waning Crescent
Apr 29
New
May 6
First Quarter
May 14
Full
May 21
Last Quarter

Today's Extremes

State Highs State Lows

Community

  • Stunning Sunrise
    Stunning Sunrise
  • spring flowers
    spring flowers
  • Earth Day Spectrum Ove' Blue
    Earth Day Spectrum Ove' Blue
  • BARN B&W
    BARN B&W
  • April Sunset
    April Sunset

WunderPhotos

Upload Photos

1,704,362 photos uploaded!

WunderBlogs® & News

Nearby

Snow Depth

Station Depth Elevation
No new snow has been reported.

Coastal Water Temperatures

Place Temperature
No Stations Reporting

Earthquake Activity

City Distance Mag. Time & Date
No recent earthquake activity has been reported nearby.
Minimum magnitude displayed is 2.5.

Nearby Weather Stations

Station Location Temp. Windchill Dew Point Humidity Wind Precip. Elev Updated Type
Grand Forks, ND 44.5 °F 38 °F 41 °F 85% NNW  at  12.6 mph 0.06 in / hr 830 ft 1:28 PM CDT Rapid Fire

Show More Stations Show Fewer Stations

What do you think?

We're not finished. Please let us know what you like, what you don't like, and what you are still missing.